createdAt,value
2023-03-03T00:00:06.449Z,32.37
2023-03-03T00:01:29.585Z,24.47
2023-03-03T00:02:51.643Z,43.43
2023-03-03T00:04:13.789Z,26.87
2023-03-03T00:05:36.361Z,34.30
2023-03-03T00:06:58.432Z,19.50
2023-03-03T00:08:22.646Z,27.87
2023-03-03T00:09:44.690Z,28.20
2023-03-03T00:11:07.844Z,25.10
2023-03-03T00:12:31.486Z,79.63
2023-03-03T00:13:55.609Z,27.87
2023-03-03T00:15:25.585Z,22.17
2023-03-03T00:16:49.164Z,28.30
2023-03-03T00:18:22.894Z,62.07
2023-03-03T00:19:47.382Z,29.93
2023-03-03T00:21:29.115Z,64.93
2023-03-03T00:22:51.339Z,44.10
2023-03-03T00:24:25.597Z,53.87
2023-03-03T00:25:51.585Z,46.73
2023-03-03T00:27:39.568Z,21.30
2023-03-03T00:29:02.033Z,28.33
2023-03-03T00:30:25.851Z,32.23
2023-03-03T00:31:47.865Z,43.90
2023-03-03T00:33:28.511Z,23.87
2023-03-03T00:34:52.540Z,30.80
2023-03-03T00:36:21.414Z,24.97
2023-03-03T00:37:43.936Z,23.13
2023-03-03T00:39:27.410Z,34.77
2023-03-03T00:40:50.149Z,28.23
2023-03-03T00:42:17.399Z,26.97
2023-03-03T00:43:39.427Z,27.97
2023-03-03T00:45:01.579Z,27.80
2023-03-03T00:46:24.328Z,25.33
2023-03-03T00:47:46.400Z,27.20
2023-03-03T00:49:24.887Z,41.67
2023-03-03T00:50:47.500Z,33.40
2023-03-03T00:52:18.656Z,35.40
2023-03-03T00:53:40.683Z,25.63
2023-03-03T00:55:04.321Z,33.60
2023-03-03T00:56:27.765Z,29.73
2023-03-03T00:57:49.780Z,22.30
2023-03-03T00:59:11.826Z,37.80
2023-03-03T01:00:34.689Z,43.93
2023-03-03T01:01:56.782Z,47.93
2023-03-03T01:03:21.990Z,22.40
2023-03-03T01:04:49.791Z,33.13
2023-03-03T01:06:12.803Z,59.03
2023-03-03T01:07:34.901Z,32.10
2023-03-03T01:08:57.361Z,37.67
2023-03-03T01:10:19.517Z,30.30
2023-03-03T01:11:41.812Z,39.57
2023-03-03T01:13:05.667Z,29.17
2023-03-03T01:14:27.844Z,37.40
2023-03-03T01:15:51.016Z,29.57
2023-03-03T01:17:13.154Z,29.10
2023-03-03T01:18:36.278Z,27.63
2023-03-03T01:19:58.345Z,27.30
2023-03-03T01:21:20.368Z,27.70
2023-03-03T01:22:42.603Z,28.40
2023-03-03T01:24:04.838Z,27.53
2023-03-03T01:25:26.954Z,30.30
2023-03-03T01:26:49.002Z,26.13
2023-03-03T01:28:11.342Z,28.30
2023-03-03T01:29:33.498Z,25.50
2023-03-03T01:31:00.100Z,37.20
2023-03-03T01:32:23.318Z,25.20
2023-03-03T01:33:45.417Z,36.90
2023-03-03T01:35:07.969Z,30.80
2023-03-03T01:36:30.452Z,40.13
2023-03-03T01:37:52.610Z,38.20
2023-03-03T01:39:14.670Z,33.97
2023-03-03T01:40:37.067Z,28.13
2023-03-03T01:41:59.106Z,27.97
2023-03-03T01:43:21.304Z,25.77
2023-03-03T01:44:43.963Z,30.37
2023-03-03T01:46:06.260Z,32.83
2023-03-03T01:47:33.659Z,25.47
2023-03-03T01:49:03.673Z,36.43
2023-03-03T01:51:01.789Z,28.53
2023-03-03T01:52:45.297Z,25.87
2023-03-03T01:54:14.658Z,25.23
2023-03-03T01:55:41.300Z,27.83
2023-03-03T01:57:06.611Z,53.80
2023-03-03T01:58:33.363Z,29.33
2023-03-03T01:59:57.410Z,34.13
2023-03-03T02:01:22.960Z,36.03
2023-03-03T02:02:46.402Z,40.43
2023-03-03T02:04:10.017Z,35.70
2023-03-03T02:05:33.617Z,34.03
2023-03-03T02:07:09.950Z,28.87
2023-03-03T02:08:42.631Z,24.80
2023-03-03T02:10:08.004Z,36.40
2023-03-03T02:11:34.628Z,43.73
2023-03-03T02:12:58.518Z,35.37
2023-03-03T02:14:20.636Z,27.67
2023-03-03T02:15:42.713Z,44.13
2023-03-03T02:17:04.814Z,29.47
2023-03-03T02:18:27.726Z,29.53
2023-03-03T02:20:07.454Z,30.57
2023-03-03T02:21:29.574Z,32.17
2023-03-03T02:22:57.286Z,29.40
2023-03-03T02:24:34.898Z,33.27
2023-03-03T02:25:58.824Z,52.33
2023-03-03T02:27:21.390Z,36.00
2023-03-03T02:28:43.683Z,32.73
2023-03-03T02:30:20.393Z,41.73
2023-03-03T02:31:43.147Z,25.67
2023-03-03T02:33:06.170Z,35.70
2023-03-03T02:34:28.388Z,30.47
2023-03-03T02:35:51.297Z,29.70
2023-03-03T02:37:13.404Z,36.23
2023-03-03T02:38:46.567Z,23.60
2023-03-03T02:40:10.710Z,32.50
2023-03-03T02:41:53.421Z,65.90
2023-03-03T02:43:20.009Z,37.73
2023-03-03T02:44:42.252Z,27.67
2023-03-03T02:46:04.545Z,35.30
2023-03-03T02:47:26.636Z,36.87
2023-03-03T02:48:48.795Z,38.67
2023-03-03T02:50:11.187Z,30.53
2023-03-03T02:51:33.448Z,37.60
2023-03-03T02:52:55.499Z,27.60
2023-03-03T02:54:20.213Z,27.47
2023-03-03T02:55:42.238Z,45.27
2023-03-03T02:57:05.335Z,38.90
2023-03-03T02:58:27.411Z,31.33
2023-03-03T02:59:49.418Z,32.13
2023-03-03T03:01:11.823Z,33.40
2023-03-03T03:02:34.138Z,35.07
2023-03-03T03:03:56.231Z,37.40
2023-03-03T03:05:18.338Z,44.00
2023-03-03T03:06:41.108Z,41.53
2023-03-03T03:08:03.179Z,32.43
2023-03-03T03:09:26.263Z,25.33
2023-03-03T03:10:49.202Z,40.07
2023-03-03T03:12:12.219Z,41.23
2023-03-03T03:13:34.762Z,40.33
2023-03-03T03:14:56.825Z,33.43
2023-03-03T03:16:19.406Z,40.27
2023-03-03T03:17:42.208Z,29.60
2023-03-03T03:19:05.075Z,40.70
2023-03-03T03:20:27.172Z,31.30
2023-03-03T03:21:49.264Z,45.93
2023-03-03T03:23:12.152Z,34.80
2023-03-03T03:24:34.233Z,34.57
2023-03-03T03:25:56.360Z,46.33
2023-03-03T03:27:19.280Z,40.30
2023-03-03T03:28:41.627Z,36.13
2023-03-03T03:30:04.062Z,37.17
2023-03-03T03:31:26.163Z,34.73
2023-03-03T03:32:48.427Z,33.73
2023-03-03T03:34:10.556Z,38.50
2023-03-03T03:35:34.558Z,41.50
2023-03-03T03:36:56.632Z,36.57
2023-03-03T03:38:18.791Z,39.23
2023-03-03T03:39:41.022Z,41.63
2023-03-03T03:41:04.255Z,36.13
2023-03-03T03:42:26.279Z,48.80
2023-03-03T03:43:48.310Z,33.67
2023-03-03T03:45:15.164Z,41.57
2023-03-03T03:46:37.231Z,30.43
2023-03-03T03:47:59.582Z,51.67
2023-03-03T03:49:21.626Z,44.53
2023-03-03T03:50:43.670Z,45.47
2023-03-03T03:52:05.701Z,39.70
2023-03-03T03:53:27.767Z,46.57
2023-03-03T03:54:49.828Z,49.43
2023-03-03T03:56:11.862Z,49.63
2023-03-03T03:57:33.938Z,44.50
2023-03-03T03:58:55.932Z,50.93
2023-03-03T04:00:18.261Z,51.57
2023-03-03T04:01:40.315Z,95.50
2023-03-03T04:03:02.445Z,49.73
2023-03-03T04:04:24.506Z,72.37
2023-03-03T04:05:46.577Z,44.33
2023-03-03T04:07:10.751Z,46.67
2023-03-03T04:08:33.681Z,80.77
2023-03-03T04:09:56.059Z,48.07
2023-03-03T04:11:18.129Z,58.53
2023-03-03T04:12:40.253Z,53.83
2023-03-03T04:14:02.298Z,73.70
2023-03-03T04:15:24.516Z,48.17
2023-03-03T04:16:46.521Z,66.07
2023-03-03T04:18:08.854Z,53.30
2023-03-03T04:19:30.898Z,56.07
2023-03-03T04:20:54.623Z,63.50
2023-03-03T04:22:16.702Z,49.50
2023-03-03T04:23:38.780Z,54.93
2023-03-03T04:25:04.967Z,54.10
2023-03-03T04:26:27.068Z,54.97
2023-03-03T04:27:49.108Z,48.73
2023-03-03T04:29:11.264Z,53.43
2023-03-03T04:30:33.344Z,54.43
2023-03-03T04:31:55.490Z,52.47
2023-03-03T04:33:17.566Z,58.53
2023-03-03T04:34:39.668Z,53.17
2023-03-03T04:36:01.871Z,50.47
2023-03-03T04:37:23.885Z,52.80
2023-03-03T04:38:45.929Z,53.37
2023-03-03T04:40:09.299Z,67.20
2023-03-03T04:41:31.390Z,59.17
2023-03-03T04:42:53.430Z,59.33
2023-03-03T04:44:15.518Z,50.20
2023-03-03T04:45:37.979Z,66.67
2023-03-03T04:47:00.016Z,65.13
2023-03-03T04:48:22.048Z,45.20
2023-03-03T04:49:44.067Z,56.43
2023-03-03T04:51:06.240Z,67.77
2023-03-03T04:52:28.665Z,66.80
2023-03-03T04:53:50.844Z,61.47
2023-03-03T04:55:14.126Z,56.63
2023-03-03T04:56:36.189Z,51.07
2023-03-03T04:57:58.187Z,46.73
2023-03-03T04:59:20.210Z,56.73
2023-03-03T05:00:42.331Z,58.00
2023-03-03T05:02:07.366Z,65.77
2023-03-03T05:03:29.402Z,46.57
2023-03-03T05:04:51.526Z,51.03
2023-03-03T05:06:13.724Z,54.17
2023-03-03T05:07:36.105Z,52.93
2023-03-03T05:08:58.154Z,49.90
2023-03-03T05:10:20.795Z,49.70
2023-03-03T05:11:42.892Z,66.97
2023-03-03T05:13:05.224Z,55.83
2023-03-03T05:14:28.160Z,52.07
2023-03-03T05:15:52.040Z,64.43
2023-03-03T05:17:14.389Z,59.33
2023-03-03T05:18:36.788Z,54.80
2023-03-03T05:19:58.864Z,49.73
2023-03-03T05:21:20.925Z,48.03
2023-03-03T05:22:42.982Z,46.90
2023-03-03T05:24:05.125Z,57.10
2023-03-03T05:25:27.431Z,101.00
2023-03-03T05:26:49.721Z,55.23
2023-03-03T05:28:11.759Z,54.30
2023-03-03T05:29:33.857Z,58.03
2023-03-03T05:30:56.040Z,57.30
2023-03-03T05:32:18.527Z,48.30
2023-03-03T05:33:40.580Z,62.67
2023-03-03T05:35:03.288Z,58.60
2023-03-03T05:36:25.554Z,57.50
2023-03-03T05:37:49.652Z,58.53
2023-03-03T05:39:11.794Z,66.17
2023-03-03T05:40:33.879Z,55.03
2023-03-03T05:41:56.122Z,63.60
2023-03-03T05:43:18.197Z,48.20
2023-03-03T05:44:40.512Z,61.57
2023-03-03T05:46:02.559Z,56.53
2023-03-03T05:47:24.832Z,56.47
2023-03-03T05:48:46.889Z,54.00
2023-03-03T05:50:09.968Z,53.43
2023-03-03T05:51:32.033Z,57.00
2023-03-03T05:52:54.131Z,63.77
2023-03-03T05:54:16.240Z,52.13
2023-03-03T05:55:38.279Z,50.37
2023-03-03T05:57:00.382Z,52.50
2023-03-03T05:58:22.468Z,49.17
2023-03-03T05:59:44.511Z,51.97
2023-03-03T06:01:06.596Z,48.83
2023-03-03T06:02:28.612Z,73.30
2023-03-03T06:03:50.619Z,57.73
2023-03-03T06:05:12.728Z,55.00
2023-03-03T06:06:35.341Z,55.27
2023-03-03T06:07:57.391Z,47.03
2023-03-03T06:09:20.442Z,52.20
2023-03-03T06:10:42.524Z,55.87
2023-03-03T06:12:04.894Z,59.70
2023-03-03T06:13:27.165Z,101.53
2023-03-03T06:14:49.245Z,68.13
2023-03-03T06:16:11.360Z,49.60
2023-03-03T06:17:33.441Z,56.87
2023-03-03T06:18:55.476Z,51.47
2023-03-03T06:20:17.580Z,48.27
2023-03-03T06:21:39.799Z,53.33
2023-03-03T06:23:01.935Z,52.10
2023-03-03T06:24:25.313Z,55.73
2023-03-03T06:25:47.617Z,45.57
2023-03-03T06:27:10.466Z,59.30
2023-03-03T06:28:32.487Z,47.77
2023-03-03T06:29:54.541Z,50.90
2023-03-03T06:31:16.561Z,61.10
2023-03-03T06:32:39.029Z,54.07
2023-03-03T06:34:01.119Z,54.27
2023-03-03T06:35:23.226Z,55.07
2023-03-03T06:36:45.922Z,71.43
2023-03-03T06:38:08.074Z,62.63
2023-03-03T06:39:30.179Z,38.77
2023-03-03T06:40:52.239Z,55.40
2023-03-03T06:42:14.261Z,44.13
2023-03-03T06:43:37.011Z,56.37
2023-03-03T06:44:59.085Z,52.00
2023-03-03T06:46:21.215Z,45.90
2023-03-03T06:47:43.328Z,47.90
2023-03-03T06:49:05.436Z,39.60
2023-03-03T06:50:27.639Z,61.90
2023-03-03T06:51:50.642Z,38.47
2023-03-03T06:53:16.255Z,47.40
2023-03-03T06:54:38.359Z,55.23
2023-03-03T06:56:01.874Z,39.70
2023-03-03T06:57:30.618Z,39.87
2023-03-03T06:59:00.669Z,43.63
2023-03-03T07:00:30.723Z,40.57
2023-03-03T07:01:53.659Z,38.80
2023-03-03T07:03:22.613Z,41.77
2023-03-03T07:04:46.950Z,53.63
2023-03-03T07:06:25.402Z,45.13
2023-03-03T07:07:47.575Z,35.63
2023-03-03T07:09:21.805Z,32.07
2023-03-03T07:10:44.630Z,30.23
2023-03-03T07:12:13.673Z,41.40
2023-03-03T07:13:40.564Z,42.17
2023-03-03T07:15:16.093Z,30.63
2023-03-03T07:16:38.344Z,42.20
2023-03-03T07:18:00.598Z,33.97
2023-03-03T07:19:33.128Z,31.83
2023-03-03T07:20:55.458Z,34.63
2023-03-03T07:22:21.051Z,40.20
2023-03-03T07:23:44.778Z,41.63
2023-03-03T07:25:30.975Z,34.17
2023-03-03T07:26:54.626Z,34.23
2023-03-03T07:28:28.951Z,29.80
2023-03-03T07:29:53.822Z,33.80
2023-03-03T07:31:45.765Z,31.60
2023-03-03T07:33:24.970Z,38.07
2023-03-03T07:34:49.342Z,36.90
2023-03-03T07:36:40.982Z,40.67
2023-03-03T07:38:03.124Z,30.47
2023-03-03T07:39:27.686Z,30.80
2023-03-03T07:40:52.831Z,56.80
2023-03-03T07:42:20.788Z,31.73
2023-03-03T07:43:54.434Z,32.93
2023-03-03T07:45:29.396Z,35.73
2023-03-03T07:46:52.630Z,34.90
2023-03-03T07:48:31.353Z,32.80
2023-03-03T07:49:55.891Z,27.40
2023-03-03T07:51:25.224Z,27.50
2023-03-03T07:52:57.304Z,33.63
2023-03-03T07:54:22.412Z,26.67
2023-03-03T07:55:45.725Z,29.93
2023-03-03T07:57:35.038Z,27.17
2023-03-03T07:58:58.261Z,34.33
2023-03-03T08:00:20.260Z,34.67
2023-03-03T08:01:46.277Z,34.60
2023-03-03T08:03:19.436Z,30.77
2023-03-03T08:04:44.406Z,30.13
2023-03-03T08:06:30.462Z,28.03
2023-03-03T08:07:52.483Z,27.40
2023-03-03T08:09:17.464Z,25.30
2023-03-03T08:10:56.643Z,24.77
2023-03-03T08:12:23.180Z,22.43
2023-03-03T08:13:45.879Z,23.10
2023-03-03T08:15:25.469Z,25.17
2023-03-03T08:16:48.254Z,22.07
2023-03-03T08:18:23.288Z,32.03
2023-03-03T08:19:45.343Z,21.43
2023-03-03T08:21:14.539Z,33.40
2023-03-03T08:22:37.165Z,21.63
2023-03-03T08:23:59.234Z,20.53
2023-03-03T08:25:21.418Z,19.90
2023-03-03T08:26:43.931Z,18.40
2023-03-03T08:28:06.219Z,21.27
2023-03-03T08:29:28.372Z,17.77
2023-03-03T08:30:50.794Z,27.20
2023-03-03T08:32:12.956Z,17.43
2023-03-03T08:33:35.192Z,23.60
2023-03-03T08:34:57.207Z,18.17
2023-03-03T08:36:19.406Z,17.03
2023-03-03T08:37:41.417Z,18.77
2023-03-03T08:39:05.345Z,20.20
2023-03-03T08:40:27.476Z,22.87
2023-03-03T08:41:49.533Z,19.03
2023-03-03T08:43:16.979Z,17.90
2023-03-03T08:44:39.549Z,18.37
2023-03-03T08:46:05.212Z,18.80
2023-03-03T08:47:27.333Z,18.37
2023-03-03T08:48:49.802Z,15.57
2023-03-03T08:50:13.612Z,14.80
2023-03-03T08:51:35.907Z,18.93
2023-03-03T08:52:58.287Z,19.30
2023-03-03T08:54:20.337Z,15.60
2023-03-03T08:55:43.004Z,19.40
2023-03-03T08:57:05.055Z,22.27
2023-03-03T08:58:35.074Z,21.60
2023-03-03T08:59:58.245Z,20.77
2023-03-03T09:01:20.366Z,20.90
2023-03-03T09:02:42.667Z,19.70
2023-03-03T09:04:04.936Z,18.00
2023-03-03T09:05:27.862Z,19.30
2023-03-03T09:06:49.940Z,21.07
2023-03-03T09:08:12.055Z,20.60
2023-03-03T09:09:34.065Z,19.93
2023-03-03T09:10:56.113Z,19.03
2023-03-03T09:12:22.922Z,20.90
2023-03-03T09:13:44.935Z,25.13
2023-03-03T09:15:16.203Z,21.10
2023-03-03T09:16:40.919Z,17.60
2023-03-03T09:18:22.627Z,18.03
2023-03-03T09:19:45.340Z,19.63
2023-03-03T09:21:28.748Z,15.20
2023-03-03T09:22:51.349Z,19.00
2023-03-03T09:24:30.769Z,18.20
2023-03-03T09:25:53.425Z,18.73
2023-03-03T09:27:31.770Z,18.10
2023-03-03T09:29:19.664Z,17.13
2023-03-03T09:30:46.611Z,20.00
2023-03-03T09:32:22.604Z,17.77
2023-03-03T09:33:47.122Z,18.23
2023-03-03T09:35:24.002Z,19.47
2023-03-03T09:36:46.225Z,15.97
2023-03-03T09:38:26.414Z,19.23
2023-03-03T09:39:54.313Z,14.83
2023-03-03T09:41:53.510Z,18.40
2023-03-03T09:43:24.576Z,15.17
2023-03-03T09:45:20.208Z,17.80
2023-03-03T09:47:14.089Z,15.73
2023-03-03T09:48:56.461Z,17.20
2023-03-03T09:50:18.453Z,17.60
2023-03-03T09:52:24.176Z,18.43
2023-03-03T09:54:04.774Z,15.97
2023-03-03T09:55:38.859Z,16.30
2023-03-03T09:57:06.518Z,19.73
2023-03-03T09:58:49.678Z,14.67
2023-03-03T10:00:33.026Z,18.67
2023-03-03T10:02:25.926Z,18.43
2023-03-03T10:04:22.823Z,19.90
2023-03-03T10:06:01.648Z,18.40
2023-03-03T10:07:46.238Z,16.07
2023-03-03T10:09:30.301Z,16.70
2023-03-03T10:11:29.290Z,14.67
2023-03-03T10:13:14.345Z,18.80
2023-03-03T10:15:00.181Z,16.60
2023-03-03T10:16:22.236Z,17.03
2023-03-03T10:18:11.863Z,17.90
2023-03-03T10:19:38.547Z,17.37
2023-03-03T10:21:12.031Z,16.67
2023-03-03T10:22:53.577Z,18.33
2023-03-03T10:24:29.971Z,19.73
2023-03-03T10:26:41.939Z,18.10
2023-03-03T10:28:06.934Z,18.30
2023-03-03T10:29:40.729Z,19.60
2023-03-03T10:31:30.589Z,16.50
2023-03-03T10:33:01.546Z,18.03
2023-03-03T10:34:50.179Z,22.80
2023-03-03T10:36:39.746Z,18.93
2023-03-03T10:38:14.588Z,18.07
2023-03-03T10:40:15.208Z,19.70
2023-03-03T10:42:28.119Z,19.30
2023-03-03T10:44:08.053Z,20.17
2023-03-03T10:45:57.987Z,18.47
2023-03-03T10:47:38.492Z,21.40
2023-03-03T10:49:13.498Z,18.83
2023-03-03T10:50:46.933Z,24.47
2023-03-03T10:52:15.114Z,22.48
2023-03-03T10:53:58.009Z,22.33
2023-03-03T10:55:49.959Z,24.43
2023-03-03T10:57:30.404Z,21.70
2023-03-03T10:59:15.055Z,24.10
2023-03-03T11:00:58.397Z,22.80
2023-03-03T11:02:46.462Z,24.53
2023-03-03T11:04:34.027Z,25.20
2023-03-03T11:06:04.917Z,24.87
2023-03-03T11:07:33.756Z,21.50
2023-03-03T11:09:05.029Z,23.73
2023-03-03T11:10:45.312Z,21.83
2023-03-03T11:12:23.303Z,20.33
2023-03-03T11:14:15.757Z,23.60
2023-03-03T11:15:44.341Z,27.27
2023-03-03T11:17:18.657Z,21.13
2023-03-03T11:19:06.891Z,20.75
2023-03-03T11:20:38.701Z,28.13
2023-03-03T11:22:23.927Z,18.40
2023-03-03T11:24:17.553Z,19.63
2023-03-03T11:26:07.626Z,22.10
2023-03-03T11:27:45.883Z,22.20
2023-03-03T11:29:35.610Z,22.53
2023-03-03T11:31:06.880Z,19.10
2023-03-03T11:33:37.549Z,21.77
2023-03-03T11:35:26.675Z,22.27
2023-03-03T11:36:51.623Z,20.63
2023-03-03T11:38:42.508Z,19.20
2023-03-03T11:40:17.032Z,17.17
2023-03-03T11:41:58.167Z,18.17
2023-03-03T11:43:43.754Z,13.67
2023-03-03T11:45:20.439Z,16.30
2023-03-03T11:46:55.712Z,18.30
2023-03-03T11:48:23.096Z,19.23
2023-03-03T11:50:04.806Z,17.20
2023-03-03T11:51:29.996Z,17.93
2023-03-03T11:53:12.943Z,16.30
2023-03-03T11:54:44.573Z,18.47
2023-03-03T11:56:17.945Z,15.67
2023-03-03T11:58:08.328Z,14.90
2023-03-03T12:00:00.278Z,14.93
2023-03-03T12:01:39.227Z,13.77
2023-03-03T12:03:20.116Z,14.50
2023-03-03T12:04:48.588Z,15.57
2023-03-03T12:06:19.326Z,12.00
2023-03-03T12:07:59.877Z,10.83
2023-03-03T12:09:58.737Z,14.93
2023-03-03T12:11:49.429Z,10.77
2023-03-03T12:13:48.093Z,15.53
2023-03-03T12:15:28.734Z,11.37
2023-03-03T12:17:17.893Z,12.43
2023-03-03T12:19:14.972Z,12.70
2023-03-03T12:20:46.159Z,12.07
2023-03-03T12:22:39.221Z,11.30
2023-03-03T12:24:08.013Z,13.40
2023-03-03T12:25:39.070Z,13.27
2023-03-03T12:27:19.648Z,13.10
2023-03-03T12:28:47.403Z,10.97
2023-03-03T12:31:01.146Z,15.67
2023-03-03T12:32:33.448Z,11.90
2023-03-03T12:34:14.900Z,12.40
2023-03-03T12:35:42.040Z,11.23
2023-03-03T12:37:22.232Z,9.70
2023-03-03T12:38:52.374Z,12.23
2023-03-03T12:40:20.260Z,10.30
2023-03-03T12:41:56.159Z,12.00
2023-03-03T12:43:32.938Z,10.80
2023-03-03T12:45:15.644Z,12.40
2023-03-03T12:46:56.337Z,12.73
2023-03-03T12:48:21.463Z,12.07
2023-03-03T12:50:10.871Z,11.43
2023-03-03T12:51:50.793Z,11.30
2023-03-03T12:53:29.869Z,13.10
2023-03-03T12:54:57.580Z,10.60
2023-03-03T12:56:39.825Z,10.40
2023-03-03T12:58:58.934Z,8.30
2023-03-03T13:00:41.248Z,6.03
2023-03-03T13:02:37.040Z,7.90
2023-03-03T13:04:31.637Z,7.10
2023-03-03T13:06:15.821Z,5.70
2023-03-03T13:07:48.551Z,7.77
2023-03-03T13:09:31.094Z,5.63
2023-03-03T13:11:18.154Z,9.63
2023-03-03T13:12:44.593Z,4.80
2023-03-03T13:14:27.115Z,11.73
2023-03-03T13:16:02.997Z,7.47
2023-03-03T13:17:55.705Z,6.53
2023-03-03T13:19:26.272Z,9.10
2023-03-03T13:21:14.419Z,7.73
2023-03-03T13:23:01.241Z,6.50
2023-03-03T13:24:42.709Z,21.83
2023-03-03T13:26:20.121Z,4.83
2023-03-03T13:27:45.441Z,7.97
2023-03-03T13:29:23.132Z,9.27
2023-03-03T13:30:50.004Z,6.77
2023-03-03T13:32:44.658Z,9.33
2023-03-03T13:34:17.955Z,7.43
2023-03-03T13:35:51.661Z,5.20
2023-03-03T13:37:30.747Z,5.20
2023-03-03T13:38:57.500Z,6.13
2023-03-03T13:40:53.838Z,4.43
2023-03-03T13:42:29.262Z,7.67
2023-03-03T13:44:04.266Z,5.30
2023-03-03T13:45:49.828Z,6.17
2023-03-03T13:47:17.726Z,4.37
2023-03-03T13:49:04.069Z,4.70
2023-03-03T13:51:03.518Z,4.73
2023-03-03T13:52:31.548Z,5.80
2023-03-03T13:54:03.187Z,5.50
2023-03-03T13:55:40.107Z,7.30
2023-03-03T13:57:25.953Z,5.00
2023-03-03T13:58:57.016Z,4.33
2023-03-03T14:00:30.884Z,2.83
2023-03-03T14:02:20.931Z,4.43
2023-03-03T14:04:12.662Z,4.67
2023-03-03T14:05:41.066Z,9.27
2023-03-03T14:07:19.776Z,4.93
2023-03-03T14:09:15.368Z,4.50
2023-03-03T14:11:17.712Z,8.67
2023-03-03T14:12:39.762Z,3.60
2023-03-03T14:14:30.621Z,5.60
2023-03-03T14:16:29.085Z,9.87
2023-03-03T14:18:18.712Z,6.37
2023-03-03T14:19:46.652Z,8.73
2023-03-03T14:21:08.748Z,6.00
2023-03-03T14:23:22.532Z,5.23
2023-03-03T14:24:59.650Z,6.20
2023-03-03T14:26:21.917Z,8.35
2023-03-03T14:27:46.942Z,9.30
2023-03-03T14:29:29.755Z,4.77
2023-03-03T14:30:58.342Z,9.13
2023-03-03T14:32:28.439Z,5.30
2023-03-03T14:34:00.533Z,7.20
2023-03-03T14:35:22.638Z,5.73
2023-03-03T14:36:44.811Z,5.70
2023-03-03T14:38:17.694Z,8.97
2023-03-03T14:39:40.685Z,7.70
2023-03-03T14:41:11.121Z,9.17
2023-03-03T14:42:51.579Z,7.63
2023-03-03T14:44:35.429Z,10.23
2023-03-03T14:46:15.154Z,8.77
2023-03-03T14:47:43.257Z,10.30
2023-03-03T14:49:16.384Z,9.53
2023-03-03T14:50:41.046Z,9.40
2023-03-03T14:52:24.769Z,8.73
2023-03-03T14:53:49.965Z,13.33
2023-03-03T14:55:35.901Z,11.77
2023-03-03T14:57:03.489Z,12.23
2023-03-03T14:58:35.041Z,11.03
2023-03-03T14:59:58.236Z,13.87
2023-03-03T15:01:32.247Z,13.17
2023-03-03T15:03:23.375Z,12.80
2023-03-03T15:04:47.450Z,11.63
2023-03-03T15:06:13.069Z,9.70
2023-03-03T15:07:37.758Z,15.37
2023-03-03T15:09:25.472Z,10.70
2023-03-03T15:10:47.594Z,10.50
2023-03-03T15:12:21.455Z,10.30
2023-03-03T15:13:43.607Z,9.70
2023-03-03T15:15:05.633Z,11.40
2023-03-03T15:16:34.389Z,11.60
2023-03-03T15:18:02.639Z,14.53
2023-03-03T15:19:40.324Z,9.13
2023-03-03T15:21:07.620Z,12.43
2023-03-03T15:22:38.426Z,10.50
2023-03-03T15:24:06.707Z,12.70
2023-03-03T15:25:44.927Z,11.50
2023-03-03T15:27:24.174Z,8.63
2023-03-03T15:29:24.928Z,9.10
2023-03-03T15:31:07.729Z,9.67
2023-03-03T15:32:44.566Z,12.93
2023-03-03T15:34:25.261Z,8.07
2023-03-03T15:36:01.768Z,11.60
2023-03-03T15:37:51.926Z,8.70
2023-03-03T15:39:13.979Z,10.50
2023-03-03T15:40:54.060Z,11.13
2023-03-03T15:42:35.529Z,8.63
2023-03-03T15:44:16.019Z,8.30
2023-03-03T15:45:46.670Z,6.97
2023-03-03T15:47:12.999Z,6.20
2023-03-03T15:48:43.992Z,8.10
2023-03-03T15:50:25.455Z,4.93
2023-03-03T15:52:22.616Z,9.00
2023-03-03T15:54:17.535Z,6.00
2023-03-03T15:56:03.780Z,6.10
2023-03-03T15:57:49.531Z,6.90
2023-03-03T15:59:26.376Z,9.80
2023-03-03T16:01:00.199Z,6.90
2023-03-03T16:02:26.563Z,11.23
2023-03-03T16:04:04.283Z,12.37
2023-03-03T16:06:01.024Z,8.33
2023-03-03T16:07:28.951Z,11.20
2023-03-03T16:09:02.793Z,10.23
2023-03-03T16:10:47.203Z,7.97
2023-03-03T16:12:31.121Z,8.60
2023-03-03T16:14:33.288Z,8.13
2023-03-03T16:16:36.500Z,7.53
2023-03-03T16:18:05.530Z,7.10
2023-03-03T16:20:03.491Z,7.90
2023-03-03T16:22:05.139Z,14.03
2023-03-03T16:23:47.365Z,9.10
2023-03-03T16:25:15.976Z,5.80
2023-03-03T16:26:40.719Z,7.37
2023-03-03T16:28:08.685Z,7.00
2023-03-03T16:29:36.200Z,6.80
2023-03-03T16:31:19.125Z,3.90
2023-03-03T16:32:48.395Z,5.50
2023-03-03T16:34:19.115Z,7.50
2023-03-03T16:35:57.697Z,3.20
2023-03-03T16:37:36.096Z,6.70
2023-03-03T16:39:06.308Z,5.60
2023-03-03T16:40:49.682Z,5.87
2023-03-03T16:42:33.629Z,8.10
2023-03-03T16:44:11.263Z,5.97
2023-03-03T16:45:39.211Z,4.70
2023-03-03T16:47:38.279Z,4.13
2023-03-03T16:49:18.701Z,8.20
2023-03-03T16:50:59.110Z,6.97
2023-03-03T16:52:33.155Z,10.43
2023-03-03T16:54:12.115Z,10.53
2023-03-03T16:55:59.115Z,7.33
2023-03-03T16:57:34.453Z,7.50
2023-03-03T16:59:32.146Z,4.93
2023-03-03T17:01:21.496Z,10.50
2023-03-03T17:03:07.874Z,8.27
2023-03-03T17:04:40.968Z,5.37
2023-03-03T17:06:28.419Z,10.47
2023-03-03T17:08:21.845Z,7.90
2023-03-03T17:10:00.830Z,4.43
2023-03-03T17:12:01.484Z,14.67
2023-03-03T17:13:50.746Z,9.60
2023-03-03T17:15:31.284Z,8.60
2023-03-03T17:17:22.190Z,9.53
2023-03-03T17:19:07.139Z,9.20
2023-03-03T17:20:37.310Z,6.90
2023-03-03T17:22:05.323Z,6.40
2023-03-03T17:23:47.819Z,9.30
2023-03-03T17:25:15.704Z,9.37
2023-03-03T17:26:37.659Z,9.43
2023-03-03T17:28:17.743Z,7.87
2023-03-03T17:29:54.179Z,12.17
2023-03-03T17:31:31.230Z,8.37
2023-03-03T17:34:19.141Z,14.33
2023-03-03T17:36:02.955Z,9.17
2023-03-03T17:38:12.615Z,11.63
2023-03-03T17:39:52.606Z,11.97
2023-03-03T17:41:37.962Z,14.00
2023-03-03T17:43:08.207Z,12.30
2023-03-03T17:44:49.381Z,12.00
2023-03-03T17:46:38.250Z,10.13
2023-03-03T17:48:32.378Z,10.13
2023-03-03T17:50:00.234Z,8.20
2023-03-03T17:51:50.200Z,12.27
2023-03-03T17:53:20.926Z,11.17
2023-03-03T17:55:06.463Z,10.80
2023-03-03T17:57:07.378Z,12.13
2023-03-03T17:58:57.015Z,9.67
2023-03-03T18:00:44.043Z,9.73
2023-03-03T18:02:35.761Z,15.10
2023-03-03T18:04:03.912Z,6.67
2023-03-03T18:05:40.088Z,10.07
2023-03-03T18:07:24.116Z,9.37
2023-03-03T18:09:19.493Z,6.40
2023-03-03T18:11:06.129Z,10.20
2023-03-03T18:12:51.753Z,8.03
2023-03-03T18:14:44.628Z,10.67
2023-03-03T18:16:25.668Z,11.37
2023-03-03T18:17:53.653Z,9.57
2023-03-03T18:19:33.635Z,9.13
2023-03-03T18:21:08.146Z,8.90
2023-03-03T18:22:41.042Z,10.13
2023-03-03T18:24:26.950Z,9.90
2023-03-03T18:25:55.774Z,9.80
2023-03-03T18:27:23.932Z,10.57
2023-03-03T18:28:49.375Z,8.60
2023-03-03T18:30:18.554Z,9.90
2023-03-03T18:32:00.081Z,11.07
2023-03-03T18:33:43.531Z,9.77
2023-03-03T18:35:32.947Z,10.17
2023-03-03T18:37:30.138Z,8.80
2023-03-03T18:38:53.567Z,9.83
2023-03-03T18:40:24.975Z,6.50
2023-03-03T18:42:08.181Z,8.80
2023-03-03T18:43:45.501Z,7.20
2023-03-03T18:45:20.497Z,5.93
2023-03-03T18:46:42.521Z,6.90
2023-03-03T18:48:12.569Z,8.83
2023-03-03T18:49:56.233Z,6.13
2023-03-03T18:51:36.892Z,12.17
2023-03-03T18:53:10.918Z,6.17
2023-03-03T18:54:34.526Z,4.20
2023-03-03T18:55:58.720Z,10.40
2023-03-03T18:57:22.980Z,6.30
2023-03-03T18:58:45.136Z,8.03
2023-03-03T19:00:15.649Z,6.10
2023-03-03T19:01:48.075Z,8.00
2023-03-03T19:03:37.886Z,10.63
2023-03-03T19:05:20.567Z,9.23
2023-03-03T19:06:45.689Z,5.40
2023-03-03T19:08:23.268Z,6.23
2023-03-03T19:09:52.426Z,7.10
2023-03-03T19:11:39.692Z,5.23
2023-03-03T19:13:02.132Z,7.10
2023-03-03T19:14:28.862Z,13.13
2023-03-03T19:15:55.822Z,10.10
2023-03-03T19:17:18.173Z,7.20
2023-03-03T19:18:43.383Z,8.90
2023-03-03T19:20:18.508Z,6.73
2023-03-03T19:21:42.987Z,7.00
2023-03-03T19:23:31.891Z,11.70
2023-03-03T19:25:08.977Z,8.53
2023-03-03T19:27:01.571Z,7.17
2023-03-03T19:28:49.471Z,11.03
2023-03-03T19:30:22.615Z,8.47
2023-03-03T19:32:02.959Z,7.72
2023-03-03T19:33:34.828Z,8.10
2023-03-03T19:35:15.378Z,10.37
2023-03-03T19:37:00.734Z,9.57
2023-03-03T19:38:37.513Z,9.13
2023-03-03T19:40:05.346Z,8.50
2023-03-03T19:42:02.533Z,17.47
2023-03-03T19:43:48.877Z,17.80
2023-03-03T19:45:27.274Z,12.50
2023-03-03T19:47:01.490Z,7.30
2023-03-03T19:48:57.128Z,13.40
2023-03-03T19:50:32.780Z,8.77
2023-03-03T19:52:01.435Z,14.33